createdAt,value
2017-12-28T00:01:27.555Z,18.98
2017-12-28T00:03:54.428Z,15.85
2017-12-28T00:06:21.225Z,16.12
2017-12-28T00:08:48.950Z,17.10
2017-12-28T00:11:15.757Z,14.95
2017-12-28T00:13:42.602Z,15.25
2017-12-28T00:16:09.762Z,15.35
2017-12-28T00:18:36.573Z,14.80
2017-12-28T00:21:03.386Z,16.10
2017-12-28T00:23:30.497Z,16.70
2017-12-28T00:25:57.302Z,17.40
2017-12-28T00:28:24.146Z,16.73
2017-12-28T00:30:51.011Z,15.48
2017-12-28T00:33:17.830Z,19.87
2017-12-28T00:35:44.652Z,17.00
2017-12-28T00:38:11.761Z,17.23
2017-12-28T00:40:38.581Z,18.30
2017-12-28T00:43:05.430Z,16.85
2017-12-28T00:45:32.249Z,18.62
2017-12-28T00:47:59.103Z,17.85
2017-12-28T00:50:26.197Z,17.00
2017-12-28T00:52:53.090Z,17.80
2017-12-28T00:55:20.177Z,20.55
2017-12-28T00:57:47.010Z,17.25
2017-12-28T01:00:13.878Z,19.17
2017-12-28T01:02:40.759Z,18.58
2017-12-28T01:05:07.573Z,17.67
2017-12-28T01:07:34.698Z,16.17
2017-12-28T01:10:01.752Z,19.25
2017-12-28T01:12:28.564Z,17.95
2017-12-28T01:14:55.442Z,20.12
2017-12-28T01:17:22.485Z,23.65
2017-12-28T01:19:49.334Z,17.77
2017-12-28T01:22:16.194Z,19.42
2017-12-28T01:24:43.005Z,20.37
2017-12-28T01:27:10.079Z,20.00
2017-12-28T01:29:37.214Z,20.25
2017-12-28T01:32:04.022Z,19.33
2017-12-28T01:34:31.101Z,17.67
2017-12-28T01:36:58.011Z,20.52
2017-12-28T01:39:24.832Z,20.12
2017-12-28T01:41:51.709Z,20.65
2017-12-28T01:44:18.781Z,22.83
2017-12-28T01:46:45.830Z,21.33
2017-12-28T01:49:12.687Z,20.85
2017-12-28T01:51:39.525Z,23.20
2017-12-28T01:54:06.665Z,20.77
2017-12-28T01:56:33.511Z,22.10
2017-12-28T01:59:00.378Z,21.92
2017-12-28T02:01:27.209Z,24.10
2017-12-28T02:03:54.318Z,22.20
2017-12-28T02:06:21.148Z,24.05
2017-12-28T02:08:48.238Z,25.08
2017-12-28T02:11:15.390Z,23.38
2017-12-28T02:13:42.255Z,24.23
2017-12-28T02:16:09.142Z,21.93
2017-12-28T02:18:35.978Z,22.83
2017-12-28T02:21:02.835Z,22.30
2017-12-28T02:23:29.917Z,25.77
2017-12-28T02:25:56.957Z,24.80
2017-12-28T02:28:23.826Z,23.40
2017-12-28T02:30:50.647Z,22.92
2017-12-28T02:33:17.491Z,23.10
2017-12-28T02:35:44.637Z,22.42
2017-12-28T02:38:11.449Z,23.20
2017-12-28T02:40:38.493Z,25.00
2017-12-28T02:43:05.338Z,25.70
2017-12-28T02:45:32.174Z,24.17
2017-12-28T02:47:59.025Z,22.27
2017-12-28T02:50:25.910Z,21.90
2017-12-28T02:52:52.759Z,21.97
2017-12-28T02:55:19.561Z,23.73
2017-12-28T02:57:46.422Z,25.00
2017-12-28T03:00:13.259Z,23.35
2017-12-28T03:02:40.333Z,23.23
2017-12-28T03:05:07.489Z,26.47
2017-12-28T03:07:34.334Z,22.87
2017-12-28T03:10:01.142Z,26.15
2017-12-28T03:12:27.988Z,25.62
2017-12-28T03:14:54.796Z,22.60
2017-12-28T03:17:21.638Z,25.63
2017-12-28T03:19:48.744Z,25.50
2017-12-28T03:22:15.581Z,27.27
2017-12-28T03:24:42.386Z,27.13
2017-12-28T03:27:09.229Z,26.27
2017-12-28T03:29:36.313Z,27.97
2017-12-28T03:32:03.470Z,26.85
2017-12-28T03:34:30.350Z,29.35
2017-12-28T03:36:57.457Z,29.63
2017-12-28T03:39:24.313Z,28.55
2017-12-28T03:41:51.152Z,29.30
2017-12-28T03:44:17.985Z,31.48
2017-12-28T03:46:44.837Z,34.15
2017-12-28T03:49:11.698Z,31.42
2017-12-28T03:51:38.554Z,32.70
2017-12-28T03:54:05.676Z,29.35
2017-12-28T03:56:32.516Z,28.20
2017-12-28T03:58:59.363Z,32.00
2017-12-28T04:01:26.215Z,32.60
2017-12-28T04:03:53.080Z,30.00
2017-12-28T04:06:20.113Z,31.92
2017-12-28T04:08:46.966Z,33.25
2017-12-28T04:11:14.081Z,30.92
2017-12-28T04:13:40.893Z,26.90
2017-12-28T04:16:07.712Z,26.90
2017-12-28T04:18:34.561Z,31.42
2017-12-28T04:21:01.661Z,29.58
2017-12-28T04:23:28.506Z,29.87
2017-12-28T04:25:55.658Z,30.35
2017-12-28T04:28:22.466Z,36.72
2017-12-28T04:30:49.273Z,47.53
2017-12-28T04:33:16.109Z,28.87
2017-12-28T04:35:42.933Z,28.70
2017-12-28T04:38:09.753Z,27.30
2017-12-28T04:40:36.917Z,29.30
2017-12-28T04:43:03.966Z,26.55
2017-12-28T04:45:30.797Z,27.60
2017-12-28T04:48:31.721Z,29.02
2017-12-28T04:50:58.561Z,41.25
2017-12-28T04:53:25.377Z,30.20
2017-12-28T04:55:52.484Z,25.20
2017-12-28T04:58:19.338Z,24.25
2017-12-28T05:00:46.178Z,23.65
2017-12-28T05:03:13.005Z,24.20
2017-12-28T05:05:39.850Z,26.08
2017-12-28T05:08:06.665Z,26.77
2017-12-28T05:10:33.826Z,25.77
2017-12-28T05:13:00.902Z,27.05
2017-12-28T05:15:27.709Z,26.83
2017-12-28T05:17:54.545Z,26.90
2017-12-28T05:20:21.633Z,25.85
2017-12-28T05:22:48.793Z,26.12
2017-12-28T05:25:15.625Z,26.60
2017-12-28T05:27:42.469Z,25.05
2017-12-28T05:30:09.275Z,25.05
2017-12-28T05:32:36.109Z,28.00
2017-12-28T05:35:03.205Z,27.48
2017-12-28T05:37:30.013Z,26.48
2017-12-28T05:39:56.845Z,25.40
2017-12-28T05:42:23.666Z,26.50
2017-12-28T05:44:50.786Z,26.20
2017-12-28T05:47:17.654Z,27.85
2017-12-28T05:49:44.491Z,25.62
2017-12-28T05:52:11.308Z,26.17
2017-12-28T05:54:38.466Z,30.45
2017-12-28T05:57:05.631Z,24.27
2017-12-28T05:59:32.438Z,26.12
2017-12-28T06:01:59.269Z,26.48
2017-12-28T06:04:26.115Z,24.85
2017-12-28T06:06:52.925Z,24.90
2017-12-28T06:09:19.818Z,24.80
2017-12-28T06:11:46.977Z,29.90
2017-12-28T06:14:13.804Z,27.02
2017-12-28T06:16:40.689Z,26.85
2017-12-28T06:19:07.505Z,27.90
2017-12-28T06:21:34.556Z,25.10
2017-12-28T06:24:01.427Z,24.85
2017-12-28T06:26:28.262Z,25.62
2017-12-28T06:28:55.407Z,25.08
2017-12-28T06:31:22.287Z,27.37
2017-12-28T06:33:49.390Z,25.80
2017-12-28T06:36:16.542Z,25.90
2017-12-28T06:38:46.768Z,30.55
2017-12-28T06:41:20.988Z,27.10
2017-12-28T06:43:49.328Z,24.25
2017-12-28T06:46:16.146Z,24.90
2017-12-28T06:48:43.245Z,25.42
2017-12-28T06:51:10.089Z,24.92
2017-12-28T06:53:36.938Z,27.05
2017-12-28T06:56:04.081Z,24.42
2017-12-28T06:58:30.953Z,22.33
2017-12-28T07:00:57.778Z,24.33
2017-12-28T07:03:24.917Z,23.45
2017-12-28T07:05:51.959Z,27.98
2017-12-28T07:08:18.803Z,26.17
2017-12-28T07:10:45.647Z,24.70
2017-12-28T07:13:12.507Z,22.30
2017-12-28T07:15:39.313Z,24.85
2017-12-28T07:18:06.389Z,26.05
2017-12-28T07:20:33.548Z,26.67
2017-12-28T07:23:00.349Z,25.83
2017-12-28T07:25:27.197Z,25.83
2017-12-28T07:27:54.082Z,25.73
2017-12-28T07:30:20.944Z,25.67
2017-12-28T07:32:47.790Z,28.10
2017-12-28T07:35:14.642Z,25.60
2017-12-28T07:37:41.486Z,24.67
2017-12-28T07:40:08.334Z,27.30
2017-12-28T07:42:35.199Z,28.55
2017-12-28T07:45:02.277Z,26.55
2017-12-28T07:47:29.104Z,26.90
2017-12-28T07:49:55.979Z,27.50
2017-12-28T07:52:22.818Z,26.27
2017-12-28T07:54:49.962Z,27.83
2017-12-28T07:57:16.818Z,29.00
2017-12-28T07:59:43.902Z,24.42
2017-12-28T08:02:10.928Z,23.77
2017-12-28T08:04:37.808Z,25.83
2017-12-28T08:07:04.670Z,20.33
2017-12-28T08:09:31.709Z,19.55
2017-12-28T08:11:58.544Z,21.53
2017-12-28T08:14:25.557Z,13.88
2017-12-28T08:16:52.525Z,12.65
2017-12-28T08:19:19.410Z,10.75
2017-12-28T08:21:46.255Z,12.47
2017-12-28T08:24:13.411Z,8.53
2017-12-28T08:26:40.559Z,6.68
2017-12-28T08:29:07.381Z,6.03
2017-12-28T08:31:34.184Z,5.40
2017-12-28T08:34:01.017Z,6.55
2017-12-28T08:36:28.136Z,4.90
2017-12-28T08:38:55.182Z,4.28
2017-12-28T08:41:22.017Z,5.90
2017-12-28T08:43:48.857Z,5.80
2017-12-28T08:46:15.645Z,4.12
2017-12-28T08:48:42.478Z,4.80
2017-12-28T08:51:09.602Z,5.40
2017-12-28T08:53:36.401Z,4.45
2017-12-28T08:56:03.262Z,6.00
2017-12-28T08:58:30.095Z,4.90
2017-12-28T09:00:57.183Z,5.60
2017-12-28T09:03:24.039Z,5.55
2017-12-28T09:05:50.862Z,5.70
2017-12-28T09:08:17.715Z,4.40
2017-12-28T09:10:44.566Z,4.70
2017-12-28T09:13:11.391Z,6.33
2017-12-28T09:15:38.445Z,4.15
2017-12-28T09:18:05.301Z,7.67
2017-12-28T09:20:32.125Z,5.93
2017-12-28T09:22:58.921Z,7.62
2017-12-28T09:25:25.783Z,4.03
2017-12-28T09:27:52.589Z,6.70
2017-12-28T09:30:19.400Z,10.20
2017-12-28T09:32:46.270Z,9.38
2017-12-28T09:35:13.085Z,6.00
2017-12-28T09:37:40.239Z,6.12
2017-12-28T09:40:07.146Z,7.25
2017-12-28T09:42:33.986Z,11.70
2017-12-28T09:45:00.829Z,10.30
2017-12-28T09:47:27.666Z,11.57
2017-12-28T09:49:54.465Z,10.13
2017-12-28T09:52:21.289Z,8.53
2017-12-28T09:54:48.102Z,8.10
2017-12-28T09:57:14.944Z,10.15
2017-12-28T09:59:41.749Z,10.65
2017-12-28T10:02:08.619Z,10.18
2017-12-28T10:04:35.490Z,9.65
2017-12-28T10:07:02.561Z,13.23
2017-12-28T10:09:29.436Z,8.88
2017-12-28T10:11:56.283Z,10.25
2017-12-28T10:14:23.081Z,8.50
2017-12-28T10:16:49.902Z,6.85
2017-12-28T10:19:16.738Z,8.07
2017-12-28T10:21:43.557Z,11.60
2017-12-28T10:24:10.410Z,12.45
2017-12-28T10:26:37.513Z,9.18
2017-12-28T10:29:04.560Z,6.63
2017-12-28T10:31:31.741Z,8.63
2017-12-28T10:33:58.858Z,6.85
2017-12-28T10:36:25.905Z,10.95
2017-12-28T10:38:52.741Z,8.98
2017-12-28T10:41:19.619Z,9.35
2017-12-28T10:43:46.475Z,7.85
2017-12-28T10:46:13.354Z,7.85
2017-12-28T10:48:40.429Z,9.85
2017-12-28T10:51:07.249Z,8.00
2017-12-28T10:53:34.082Z,11.50
2017-12-28T10:56:01.166Z,10.25
2017-12-28T10:58:27.968Z,8.80
2017-12-28T11:00:54.796Z,6.85
2017-12-28T11:03:21.646Z,8.98
2017-12-28T11:05:48.466Z,8.80
2017-12-28T11:08:15.321Z,5.80
2017-12-28T11:10:42.431Z,9.88
2017-12-28T11:13:09.262Z,8.43
2017-12-28T11:15:36.087Z,12.35
2017-12-28T11:18:02.931Z,10.18
2017-12-28T11:20:29.767Z,8.52
2017-12-28T11:22:56.593Z,5.05
2017-12-28T11:25:23.447Z,8.40
2017-12-28T11:27:50.254Z,10.18
2017-12-28T11:30:17.118Z,6.90
2017-12-28T11:32:43.915Z,10.40
2017-12-28T11:35:10.962Z,7.70
2017-12-28T11:37:37.828Z,11.00
2017-12-28T11:40:04.669Z,12.57
2017-12-28T11:42:31.485Z,11.45
2017-12-28T11:44:58.361Z,13.77
2017-12-28T11:47:25.203Z,15.68
2017-12-28T11:49:52.091Z,11.95
2017-12-28T11:52:18.950Z,12.68
2017-12-28T11:54:46.122Z,14.87
2017-12-28T11:57:12.951Z,15.00
2017-12-28T11:59:40.118Z,13.50
2017-12-28T12:02:06.948Z,12.88
2017-12-28T12:04:33.802Z,18.85
2017-12-28T12:07:00.957Z,14.53
2017-12-28T12:09:27.749Z,12.85
2017-12-28T12:11:54.594Z,16.30
2017-12-28T12:14:21.786Z,14.77
2017-12-28T12:16:48.613Z,13.15
2017-12-28T12:19:15.418Z,17.80
2017-12-28T12:21:42.253Z,12.40
2017-12-28T12:24:09.098Z,17.92
2017-12-28T12:26:35.909Z,13.15
2017-12-28T12:29:02.783Z,13.18
2017-12-28T12:31:29.593Z,15.20
2017-12-28T12:33:56.399Z,15.80
2017-12-28T12:36:23.262Z,15.90
2017-12-28T12:38:50.317Z,14.68
2017-12-28T12:41:17.138Z,13.30
2017-12-28T12:43:43.962Z,17.02
2017-12-28T12:46:10.794Z,20.33
2017-12-28T12:48:37.645Z,15.73
2017-12-28T12:51:04.493Z,14.73
2017-12-28T12:53:31.330Z,15.55
2017-12-28T12:55:58.125Z,12.68
2017-12-28T12:58:24.997Z,11.40
2017-12-28T13:00:51.801Z,15.00
2017-12-28T13:03:18.605Z,17.65
2017-12-28T13:05:45.441Z,17.80
2017-12-28T13:08:12.552Z,14.23
2017-12-28T13:10:39.354Z,17.67
2017-12-28T13:13:06.211Z,19.85
2017-12-28T13:15:33.052Z,21.23
2017-12-28T13:17:59.896Z,18.75
2017-12-28T13:20:26.729Z,15.85
2017-12-28T13:22:53.804Z,16.35
2017-12-28T13:25:20.646Z,17.17
2017-12-28T13:27:47.546Z,12.70
2017-12-28T13:30:14.642Z,13.52
2017-12-28T13:32:41.797Z,14.38
2017-12-28T13:35:08.946Z,13.73
2017-12-28T13:37:35.757Z,20.58
2017-12-28T13:40:02.577Z,12.73
2017-12-28T13:42:29.447Z,12.82
2017-12-28T13:44:56.245Z,12.85
2017-12-28T13:47:23.054Z,11.52
2017-12-28T13:49:49.986Z,13.67
2017-12-28T13:52:16.785Z,13.90
2017-12-28T13:54:43.894Z,16.40
2017-12-28T13:57:11.002Z,15.47
2017-12-28T13:59:37.850Z,15.15
2017-12-28T14:02:04.646Z,19.10
2017-12-28T14:04:31.507Z,17.40
2017-12-28T14:06:58.309Z,12.35
2017-12-28T14:09:25.566Z,16.45
2017-12-28T14:11:52.401Z,20.17
2017-12-28T14:14:19.226Z,14.73
2017-12-28T14:16:46.057Z,20.92
2017-12-28T14:19:13.142Z,13.27
2017-12-28T14:21:40.190Z,15.52
2017-12-28T14:24:06.991Z,21.40
2017-12-28T14:26:33.832Z,15.30
2017-12-28T14:29:00.666Z,18.80
2017-12-28T14:31:27.770Z,16.55
2017-12-28T14:33:54.629Z,12.55
2017-12-28T14:36:21.762Z,14.27
2017-12-28T14:38:48.595Z,13.35
2017-12-28T14:41:15.450Z,13.43
2017-12-28T14:43:42.257Z,13.80
2017-12-28T14:46:09.104Z,12.73
2017-12-28T14:48:35.962Z,12.95
2017-12-28T14:51:02.831Z,18.02
2017-12-28T14:53:29.649Z,17.70
2017-12-28T14:55:56.516Z,10.45
2017-12-28T14:58:23.357Z,14.13
2017-12-28T15:00:50.194Z,13.47
2017-12-28T15:03:17.029Z,15.10
2017-12-28T15:05:44.089Z,21.62
2017-12-28T15:08:10.897Z,15.13
2017-12-28T15:10:37.974Z,18.45
2017-12-28T15:13:05.026Z,19.48
2017-12-28T15:15:31.862Z,14.47
2017-12-28T15:17:59.013Z,13.02
2017-12-28T15:20:25.832Z,11.43
2017-12-28T15:22:52.659Z,11.93
2017-12-28T15:25:19.519Z,14.87
2017-12-28T15:27:46.359Z,12.98
2017-12-28T15:30:13.197Z,12.57
2017-12-28T15:32:40.025Z,11.02
2017-12-28T15:35:06.883Z,12.07
2017-12-28T15:37:33.964Z,11.65
2017-12-28T15:40:00.842Z,11.55
2017-12-28T15:42:27.964Z,12.18
2017-12-28T15:44:55.109Z,10.48
2017-12-28T15:47:21.940Z,9.27
2017-12-28T15:49:48.787Z,12.33
2017-12-28T15:52:15.581Z,8.85
2017-12-28T15:54:42.453Z,10.70
2017-12-28T15:57:09.258Z,10.05
2017-12-28T15:59:36.077Z,10.45
2017-12-28T16:02:02.949Z,13.50
2017-12-28T16:04:29.792Z,10.95
2017-12-28T16:06:56.627Z,12.27
2017-12-28T16:09:23.461Z,13.32
2017-12-28T16:11:50.263Z,9.80
2017-12-28T16:14:17.092Z,12.83
2017-12-28T16:16:43.917Z,9.80
2017-12-28T16:19:10.760Z,10.05
2017-12-28T16:21:37.569Z,11.68
2017-12-28T16:24:04.421Z,11.10
2017-12-28T16:26:31.242Z,9.57
2017-12-28T16:28:58.082Z,13.73
2017-12-28T16:31:24.934Z,12.52
2017-12-28T16:33:51.974Z,7.60
2017-12-28T16:36:18.808Z,11.50
2017-12-28T16:38:45.670Z,10.40
2017-12-28T16:41:12.502Z,10.23
2017-12-28T16:43:39.335Z,12.00
2017-12-28T16:46:06.475Z,14.57
2017-12-28T16:48:34.495Z,9.98
2017-12-28T16:51:01.919Z,11.02
2017-12-28T16:53:28.775Z,14.23
2017-12-28T16:55:55.914Z,11.75
2017-12-28T16:58:22.962Z,13.52
2017-12-28T17:00:49.800Z,10.97
2017-12-28T17:03:16.625Z,10.57
2017-12-28T17:05:43.459Z,11.27
2017-12-28T17:08:10.543Z,15.20
2017-12-28T17:10:37.387Z,12.10
2017-12-28T17:13:04.241Z,13.30
2017-12-28T17:15:31.100Z,17.37
2017-12-28T17:17:58.221Z,10.38
2017-12-28T17:20:25.029Z,13.38
2017-12-28T17:22:52.230Z,15.80
2017-12-28T17:25:19.079Z,15.02
2017-12-28T17:27:45.877Z,11.30
2017-12-28T17:30:12.720Z,16.80
2017-12-28T17:32:39.596Z,15.07
2017-12-28T17:35:06.750Z,16.35
2017-12-28T17:37:33.564Z,13.35
2017-12-28T17:40:00.635Z,13.55
2017-12-28T17:42:27.442Z,13.88
2017-12-28T17:44:54.627Z,11.52
2017-12-28T17:47:21.463Z,15.50
2017-12-28T17:49:48.269Z,11.55
2017-12-28T17:52:15.144Z,13.48
2017-12-28T17:54:41.975Z,16.55
2017-12-28T17:57:08.814Z,10.68
2017-12-28T17:59:35.649Z,10.98
2017-12-28T18:02:02.730Z,13.20
2017-12-28T18:04:29.883Z,12.93
2017-12-28T18:06:56.719Z,15.70
2017-12-28T18:09:23.572Z,10.18
2017-12-28T18:11:50.830Z,11.23
2017-12-28T18:14:17.733Z,12.15
2017-12-28T18:16:44.559Z,17.62
2017-12-28T18:19:11.785Z,13.30
2017-12-28T18:21:38.905Z,9.40
2017-12-28T18:24:05.957Z,11.50
2017-12-28T18:26:33.006Z,13.52
2017-12-28T18:29:00.183Z,11.18
2017-12-28T18:31:27.026Z,11.23
2017-12-28T18:33:53.833Z,10.40
2017-12-28T18:36:20.935Z,9.85
2017-12-28T18:38:48.038Z,9.65
2017-12-28T18:41:14.845Z,13.05
2017-12-28T18:43:41.722Z,9.55
2017-12-28T18:46:08.575Z,10.10
2017-12-28T18:48:35.419Z,11.38
2017-12-28T18:51:02.283Z,10.10
2017-12-28T18:53:29.317Z,8.20
2017-12-28T18:55:56.146Z,16.17
2017-12-28T18:58:23.000Z,18.15
2017-12-28T19:00:49.811Z,12.05
2017-12-28T19:03:16.667Z,9.32
2017-12-28T19:05:43.534Z,12.00
2017-12-28T19:08:10.362Z,14.13
2017-12-28T19:10:37.169Z,12.13
2017-12-28T19:13:04.023Z,8.80
2017-12-28T19:15:31.103Z,9.40
2017-12-28T19:17:57.930Z,7.80
2017-12-28T19:20:24.750Z,9.37
2017-12-28T19:22:51.579Z,8.20
2017-12-28T19:25:18.624Z,10.57
2017-12-28T19:27:45.492Z,15.90
2017-12-28T19:30:12.319Z,7.65
2017-12-28T19:32:39.146Z,9.73
2017-12-28T19:35:05.984Z,10.57
2017-12-28T19:37:33.058Z,10.85
2017-12-28T19:40:00.147Z,9.50
2017-12-28T19:42:27.006Z,10.10
2017-12-28T19:44:54.145Z,10.63
2017-12-28T19:47:20.947Z,9.90
2017-12-28T19:49:47.807Z,11.20
2017-12-28T19:52:14.644Z,10.80
2017-12-28T19:54:41.445Z,10.20
2017-12-28T19:57:08.277Z,11.93
2017-12-28T19:59:35.120Z,9.43
2017-12-28T20:02:01.941Z,12.70
2017-12-28T20:07:14.267Z,10.32
2017-12-28T20:09:41.094Z,9.50
2017-12-28T20:12:07.935Z,9.90
2017-12-28T20:14:34.758Z,10.73
2017-12-28T20:17:01.595Z,10.93
2017-12-28T20:19:28.414Z,10.75
2017-12-28T20:24:34.542Z,11.95
2017-12-28T20:27:01.581Z,13.60
2017-12-28T20:29:28.386Z,10.95
2017-12-28T20:31:55.296Z,11.82
2017-12-28T20:34:22.137Z,12.55
2017-12-28T20:36:49.385Z,18.17
2017-12-28T20:39:16.539Z,21.33
2017-12-28T20:41:43.346Z,14.35
2017-12-28T20:44:10.157Z,17.62
2017-12-28T20:46:37.275Z,12.30
2017-12-28T20:49:04.111Z,14.98
2017-12-28T20:51:30.936Z,15.43
2017-12-28T20:53:57.754Z,16.60
2017-12-28T20:56:24.566Z,13.20
2017-12-28T20:58:51.406Z,12.88
2017-12-28T21:01:18.266Z,15.27
2017-12-28T21:03:45.102Z,11.95
2017-12-28T21:06:12.223Z,17.12
2017-12-28T21:08:39.053Z,13.73
2017-12-28T21:11:05.889Z,12.90
2017-12-28T21:13:32.708Z,14.57
2017-12-28T21:15:59.575Z,12.55
2017-12-28T21:18:26.650Z,18.95
2017-12-28T21:20:53.495Z,13.82
2017-12-28T21:23:20.325Z,15.07
2017-12-28T21:25:47.479Z,15.35
2017-12-28T21:28:14.625Z,15.07
2017-12-28T21:30:41.466Z,14.10
2017-12-28T21:33:08.304Z,15.20
2017-12-28T21:35:35.150Z,12.32
2017-12-28T21:38:02.312Z,12.65
2017-12-28T21:40:29.145Z,14.77
2017-12-28T21:42:55.974Z,14.63
2017-12-28T21:45:23.251Z,13.55
2017-12-28T21:47:50.399Z,13.30
2017-12-28T21:50:17.254Z,13.82
2017-12-28T21:52:44.081Z,13.00
2017-12-28T21:55:10.919Z,13.37
2017-12-28T21:57:37.754Z,17.15
2017-12-28T22:00:04.879Z,11.82
2017-12-28T22:02:31.726Z,14.93
2017-12-28T22:04:58.563Z,12.18
2017-12-28T22:07:25.388Z,17.58
2017-12-28T22:09:52.233Z,13.25
2017-12-28T22:12:19.032Z,13.52
2017-12-28T22:14:45.898Z,12.85
2017-12-28T22:17:13.031Z,14.40
2017-12-28T22:19:39.863Z,12.77
2017-12-28T22:22:07.026Z,11.43
2017-12-28T22:24:33.842Z,15.30
2017-12-28T22:27:00.658Z,10.32
2017-12-28T22:29:27.916Z,17.05
2017-12-28T22:31:54.740Z,16.05
2017-12-28T22:34:21.537Z,16.80
2017-12-28T22:36:48.370Z,13.90
2017-12-28T22:39:15.177Z,11.55
2017-12-28T22:41:42.015Z,12.40
2017-12-28T22:44:09.074Z,16.20
2017-12-28T22:46:36.106Z,12.77
2017-12-28T22:49:02.917Z,11.52
2017-12-28T22:51:29.750Z,12.60
2017-12-28T22:53:56.906Z,10.85
2017-12-28T22:56:23.726Z,11.20
2017-12-28T22:58:50.590Z,11.77
2017-12-28T23:01:17.438Z,11.80
2017-12-28T23:03:44.278Z,10.88
2017-12-28T23:06:11.150Z,13.95
2017-12-28T23:08:38.218Z,13.43
2017-12-28T23:11:05.054Z,11.82
2017-12-28T23:13:31.897Z,10.05
2017-12-28T23:15:58.802Z,13.93
2017-12-28T23:18:25.597Z,10.73
2017-12-28T23:20:52.457Z,12.10
2017-12-28T23:23:19.529Z,11.82
2017-12-28T23:25:46.581Z,16.00
2017-12-28T23:28:13.447Z,14.63
2017-12-28T23:30:40.257Z,14.38
2017-12-28T23:33:07.313Z,11.63
2017-12-28T23:35:34.174Z,14.27
2017-12-28T23:38:01.308Z,16.30
2017-12-28T23:40:28.461Z,12.95
2017-12-28T23:42:55.318Z,16.80
2017-12-28T23:45:22.119Z,11.00
2017-12-28T23:47:49.157Z,12.98
2017-12-28T23:50:15.997Z,11.52
2017-12-28T23:52:42.813Z,13.38
2017-12-28T23:55:09.927Z,9.68
2017-12-28T23:57:37.086Z,12.50
